• Join FlightAware (Why Join?)
  • Login
  • US Flag 
01:08PM EDT


 

Airport Tracker/Info


-or-


 

Live Flight TrackerFlight Track Log ✈ N122SA ✈ 30-Jul-2014 ✈ KAUO - KORL

Flight Track Log - Related Links

Times and Time Zones

All times are in EDT time to prevent confusion due to time zone crossing. See the N122SA flight status page for this flight to view local times or setup timezone preferences in your user account.

Time Position Orientation Groundspeed Altitude Reporting Facility
EDT Latitude Longitude Course Direction KTS MPH feet Rate Location/Type
03:48PM 32.6333 -85.4000 146° Southeast 130 150 2,100  Level Atlanta TRACON
03:49PM 32.6000 -85.4000 180° South 147 169 2,900 840 Climbing Atlanta TRACON
03:50PM 32.5667 -85.3833 157° South 137 158 3,800 840 Climbing Atlanta TRACON
03:51PM 32.5333 -85.3667 157° South 147 169 4,500 600 Climbing Atlanta TRACON
03:53PM 32.4038 -85.2088 146° Southeast  Level Estimated
03:53PM 32.4500 -85.3000 146° Southeast 146 168 5,700  Level Atlanta TRACON
03:55PM 32.3833 -85.2500 148° Southeast 149 171 6,900 420 Climbing Atlanta TRACON
03:56PM 32.3500 -85.2167 140° Southeast 161 185 7,000  Climbing Atlanta TRACON
03:57PM 32.3167 -85.2000 157° South 165 190 7,000  Level Atlanta TRACON
03:58PM 32.2833 -85.1667 140° Southeast 167 192 7,000  Level Atlanta TRACON
03:59PM 32.2500 -85.1333 140° Southeast 165 190 7,000  Level Atlanta TRACON
04:00PM 32.2000 -85.1000 151° Southeast 165 190 7,000  Level Atlanta TRACON
04:01PM 32.1667 -85.0667 140° Southeast 165 190 7,000  Level Atlanta TRACON
04:03PM 32.0864 -85.0039 146° Southeast 173 199 7,000  Level Jacksonville Center
04:04PM 32.0472 -84.9736 147° Southeast 173 199 7,000  Level Jacksonville Center
04:05PM 32.0122 -84.9433 144° Southeast 167 192 7,000  Level Jacksonville Center
04:06PM 31.9708 -84.9106 146° Southeast 167 192 7,000  Level Jacksonville Center
04:07PM 31.9339 -84.8803 145° Southeast 167 192 7,000  Level Jacksonville Center
04:08PM 31.8967 -84.8503 146° Southeast 167 192 7,000 -60 Level Jacksonville Center
04:09PM 31.8617 -84.8200 144° Southeast 167 192 6,900 -60 Descending Jacksonville Center
04:10PM 31.8244 -84.7900 146° Southeast 167 192 6,900  Level Jacksonville Center
04:11PM 31.7853 -84.7600 147° Southeast 167 192 6,900  Level Jacksonville Center
04:12PM 31.7461 -84.7272 145° Southeast 167 192 6,900  Level Jacksonville Center
04:13PM 31.7111 -84.6972 144° Southeast 167 192 6,900  Level Jacksonville Center
04:14PM 31.6719 -84.6672 147° Southeast 167 192 6,900  Level Jacksonville Center
04:15PM 31.6347 -84.6372 146° Southeast 162 186 6,900  Level Jacksonville Center
04:16PM 31.5956 -84.6047 145° Southeast 162 186 6,900  Level Jacksonville Center
04:17PM 31.5583 -84.5700 142° Southeast 162 186 6,900  Level Jacksonville Center
04:18PM 31.5233 -84.5353 140° Southeast 162 186 6,900  Level Jacksonville Center
04:19PM 31.4903 -84.4981 136° Southeast 167 192 6,900  Level Jacksonville Center
04:20PM 31.4533 -84.4586 138° Southeast 167 192 6,900  Level Jacksonville Center
04:21PM 31.4203 -84.4214 136° Southeast 167 192 6,900  Level Jacksonville Center
04:22PM 31.3853 -84.3844 138° Southeast 167 192 6,900  Level Jacksonville Center
04:23PM 31.3503 -84.3472 138° Southeast 167 192 6,900  Level Jacksonville Center
04:24PM 31.3150 -84.3103 138° Southeast 167 192 6,900  Level Jacksonville Center
04:25PM 31.2819 -84.2758 138° Southeast 168 193 7,000 60 Climbing Jacksonville Center
04:25PM 31.2697 -84.2633 139° Southeast 167 192 7,000 -120 Level Jacksonville Center
04:26PM 31.2492 -84.2389 135° Southeast 167 192 6,900  Descending Jacksonville Center
04:26PM 31.2367 -84.2289 146° Southeast 167 192 7,000 60 Climbing Jacksonville Center
04:27PM 31.2078 -84.1969 137° Southeast 167 192 7,000  Level Jacksonville Center
04:28PM 31.1789 -84.1650 137° Southeast 167 192 7,000  Level Jacksonville Center
04:29PM 31.1436 -84.1256 136° Southeast 167 192 7,000  Level Jacksonville Center
04:30PM 31.1086 -84.0911 140° Southeast 167 192 7,000  Level Jacksonville Center
04:31PM 31.0653 -84.0447 137° Southeast 168 193 7,100  Climbing Jacksonville Center
04:32PM 31.0425 -84.0178 135° Southeast 162 186 7,000 -60 Descending Jacksonville Center
04:33PM 31.0072 -83.9833 140° Southeast 162 186 7,000  Level Jacksonville Center
04:34PM 30.9742 -83.9442 135° Southeast 162 186 7,000 60 Level Jacksonville Center
04:34PM 30.9617 -83.9392 161° South 168 193 7,100 60 Climbing Jacksonville Center
04:35PM 30.9264 -83.9000 136° Southeast 168 193 7,100  Level Jacksonville Center
04:36PM 30.8914 -83.8658 140° Southeast 170 196 7,100  Level Jacksonville Center
04:37PM 30.8561 -83.8292 138° Southeast 170 196 7,100  Level Jacksonville Center
04:38PM 30.8208 -83.7875 135° Southeast 172 198 7,100  Level Jacksonville Center
04:39PM 30.7856 -83.7511 138° Southeast 173 199 7,100  Level Jacksonville Center
04:40PM 30.7483 -83.7119 138° Southeast 172 198 7,100  Level Jacksonville Center
04:41PM 30.7150 -83.6778 139° Southeast 174 200 7,100  Level Jacksonville Center
04:42PM 30.6778 -83.6367 136° Southeast 171 197 7,100 -120 Level Jacksonville Center
04:43PM 30.6611 -83.6172 135° Southeast 170 196 7,000  Descending Jacksonville Center
04:43PM 30.6403 -83.5975 141° Southeast 171 197 7,100  Climbing Jacksonville Center
04:44PM 30.6239 -83.5806 138° Southeast 170 196 7,000  Descending Jacksonville Center
04:44PM 30.6072 -83.5636 139° Southeast 170 196 7,100 -120 Climbing Jacksonville Center
04:45PM 30.5886 -83.5417 135° Southeast 185 213 6,900 -180 Descending Jacksonville Center
04:46PM 30.5553 -83.5028 135° Southeast 185 213 6,900  Level Jacksonville Center
04:47PM 30.5178 -83.4664 140° Southeast 180 207 6,900  Level Jacksonville Center
04:48PM 30.4825 -83.4325 140° Southeast 175 201 6,900  Level Jacksonville Center
04:49PM 30.4472 -83.3939 137° Southeast 175 201 6,900  Level Jacksonville Center
04:50PM 30.4139 -83.3575 137° Southeast 175 201 6,900  Level Jacksonville Center
04:51PM 30.3786 -83.3236 140° Southeast 175 201 6,900  Level Jacksonville Center
04:52PM 30.3431 -83.2850 137° Southeast 170 196 6,900  Level Jacksonville Center
04:53PM 30.3078 -83.2486 138° Southeast 170 196 7,000  Climbing Jacksonville Center
04:54PM 30.2744 -83.2125 137° Southeast 170 196 6,900 -60 Descending Jacksonville Center
04:55PM 30.2369 -83.1786 142° Southeast 170 196 6,900  Level Jacksonville Center
04:56PM 30.2036 -83.1425 137° Southeast 170 196 6,900  Level Jacksonville Center
04:57PM 30.1683 -83.1039 137° Southeast 170 196 6,900  Level Jacksonville Center
04:58PM 30.1328 -83.0703 141° Southeast 165 190 6,900  Level Jacksonville Center
04:59PM 30.0994 -83.0319 135° Southeast 165 190 6,900  Level Jacksonville Center
05:00PM 30.0661 -82.9958 137° Southeast 165 190 6,900  Level Jacksonville Center
05:01PM 30.0306 -82.9622 141° Southeast 165 190 6,900  Level Jacksonville Center
05:02PM 29.9950 -82.9261 139° Southeast 165 190 6,900 60 Level Jacksonville Center
05:02PM 29.9742 -82.9117 149° Southeast 169 194 7,000  Climbing Jacksonville Center
05:03PM 29.9597 -82.8903 128° Southeast 160 184 6,900  Descending Jacksonville Center
05:03PM 29.9469 -82.8831 154° Southeast 170 196 7,000  Climbing Jacksonville Center
05:04PM 29.9242 -82.8519 130° Southeast 160 184 6,900  Descending Jacksonville Center
05:04PM 29.9136 -82.8447 149° Southeast 170 196 7,000  Climbing Jacksonville Center
05:05PM 29.8886 -82.8158 135° Southeast 160 184 6,900  Descending Jacksonville Center
05:05PM 29.8739 -82.8064 151° Southeast 170 196 7,000 60 Climbing Jacksonville Center
05:06PM 29.8531 -82.7800 132° Southeast 160 184 7,000  Level Jacksonville Center
05:06PM 29.8406 -82.7706 147° Southeast 169 194 7,000 -120 Level Jacksonville Center
05:07PM 29.8175 -82.7442 135° Southeast 160 184 6,900  Descending Jacksonville Center
05:07PM 29.8050 -82.7344 146° Southeast 169 194 7,000  Climbing Jacksonville Center
05:08PM 29.7842 -82.7083 133° Southeast 160 184 6,900  Descending Jacksonville Center
05:08PM 29.7717 -82.6989 147° Southeast 169 194 7,000  Climbing Jacksonville Center
05:09PM 29.7486 -82.6725 135° Southeast 160 184 6,900  Descending Jacksonville Center
05:09PM 29.7339 -82.6653 157° South 168 193 7,000 60 Climbing Jacksonville Center
05:10PM 29.7131 -82.6367 130° Southeast 160 184 7,000  Level Jacksonville Center
05:10PM 29.6983 -82.6272 151° Southeast 167 192 7,000 -120 Level Jacksonville Center
05:11PM 29.6775 -82.6033 135° Southeast 160 184 6,900  Descending Jacksonville Center
05:11PM 29.6608 -82.5889 143° Southeast 170 196 7,000  Climbing Jacksonville Center
05:12PM 29.6419 -82.5653 133° Southeast 160 184 6,900  Descending Jacksonville Center
05:12PM 29.6272 -82.5508 140° Southeast 173 199 7,000 60 Climbing Jacksonville Center
05:13PM 29.5917 -82.5153 139° Southeast 172 198 7,000  Level Jacksonville Center
05:14PM 29.5539 -82.4772 139° Southeast 171 197 7,000  Level Jacksonville Center
05:15PM 29.5161 -82.4417 141° Southeast 174 200 7,000  Level Jacksonville Center
05:16PM 29.4786 -82.4011 137° Southeast 173 199 7,000 -60 Level Jacksonville Center
05:17PM 29.4408 -82.3656 141° Southeast 177 204 6,900 -300 Descending Jacksonville Center
05:18PM 29.4008 -82.3253 139° Southeast 183 211 6,400 -540 Descending Jacksonville Center
05:19PM 29.3653 -82.2872 137° Southeast 186 214 5,900 -540 Descending Jacksonville Center
05:20PM 29.3256 -82.2494 140° Southeast 183 211 5,400 -480 Descending Jacksonville Center
05:21PM 29.2856 -82.2069 137° Southeast 182 209 5,000 -240 Descending Jacksonville Center
05:22PM 29.2500 -82.1714 139° Southeast 165 190 5,000  Level Jacksonville Center
05:23PM 29.2164 -82.1383 139° Southeast 164 189 5,000  Level Jacksonville Center
05:24PM 29.1786 -82.1031 141° Southeast 165 190 5,000  Level Jacksonville Center
05:25PM 29.1406 -82.0628 137° Southeast 169 194 5,000  Level Jacksonville Center
05:28PM 29.0667 -81.9833 137° Southeast 163 188 5,000  Level Orlando TRACON
05:29PM 29.0167 -81.9333 139° Southeast 161 185 5,000  Level Orlando TRACON
05:29PM 29.0000 -81.9167 139° Southeast 165 190 5,000  Level Orlando TRACON
05:30PM 28.9667 -81.8833 139° Southeast 164 189 5,000  Level Orlando TRACON
05:32PM 28.9333 -81.8500 139° Southeast 165 190 5,000  Level Orlando TRACON
05:33PM 28.8833 -81.8167 150° Southeast 165 190 5,000  Level Orlando TRACON
05:34PM 28.8500 -81.7667 127° Southeast 165 190 5,000 -120 Level Orlando TRACON
05:35PM 28.8333 -81.7167 111° Southeast 173 199 4,800 -360 Descending Orlando TRACON
05:40PM 28.7362 -81.4508 113° Southeast 160 184 3,000 -300 Descending FlightAware ADS-B (KMCO)
05:41PM 28.7261 -81.4236 113° Southeast 160 184 3,000  Level FlightAware ADS-B (KMCO)
05:41PM 28.7175 -81.4008 114° Southeast 161 185 3,000 -120 Level FlightAware ADS-B (KMCO)
05:42PM 28.7063 -81.3713 113° Southeast 163 188 2,900 -360 Descending FlightAware ADS-B (KMCO)
05:42PM 28.7010 -81.3574 114° Southeast 169 194 2,700 -540 Descending FlightAware ADS-B (KMCO)
05:42PM 28.6954 -81.3429 113° Southeast 174 200 2,600 -480 Descending FlightAware ADS-B (KSFB)
05:43PM 28.6890 -81.3253 113° Southeast 177 204 2,400 -600 Descending FlightAware ADS-B (KSFB)
05:43PM 28.6825 -81.3080 113° Southeast 180 207 2,200 -660 Descending FlightAware ADS-B (KSFB)
05:43PM 28.6760 -81.2912 113° Southeast 180 207 2,000 -600 Descending FlightAware ADS-B (KSFB)
05:44PM 28.6702 -81.2759 114° Southeast 177 204 1,800 -600 Descending FlightAware ADS-B (KSFB)
05:44PM 28.6619 -81.2541 114° Southeast 176 203 1,600 -480 Descending FlightAware ADS-B (KMCO)
05:44PM 28.6602 -81.2503 122° Southeast 175 201 1,600  Level FlightAware ADS-B (KSFB)
05:44PM 28.6565 -81.2455 133° Southeast 167 192 1,600  Level FlightAware ADS-B (KSFB)
05:45PM 28.6382 -81.2311 167° South 155 178 1,600  Level FlightAware ADS-B (KMCO)
05:45PM 28.6214 -81.2291 181° South 157 181 1,600  Level FlightAware ADS-B (KMCO)
05:45PM 28.6068 -81.2292 180° South 159 183 1,600 -180 Level FlightAware ADS-B (KMCO)
05:46PM 28.5899 -81.2297 190° South 163 188 1,500 -300 Descending FlightAware ADS-B (KMCO)
05:46PM 28.5755 -81.2358 223° Southwest 160 184 1,400 -480 Descending FlightAware ADS-B (KMCO)
05:46PM 28.5704 -81.2509 261° West 159 183 1,200 -480 Descending FlightAware ADS-B (KMCO)
05:47PM 28.5685 -81.2651 259° West 117 135 1,100 -180 Descending FlightAware ADS-B (KMCO)
05:47PM 28.5667 -81.2754 259° West 102 117 1,100 -180 Level FlightAware ADS-B (KMCO)
05:47PM 28.5630 -81.2860 249° West 96 110 1,000 -720 Descending FlightAware ADS-B (KMCO)
05:48PM 28.5591 -81.2959 247° West 101 116 600 -960 Descending FlightAware ADS-B (KMCO)
05:48PM 28.5559 -81.3044 247° West 90 104 400 -720 Descending FlightAware ADS-B (KMCO)
05:55PM 28.5333 -81.3167 198° South  Level FlightAware Approximate
05:56PM 28.5455 -81.3329 41° Northeast  Level Estimated
05:57PM 28.5455 -81.3329 130° Southeast  Level Estimated
05:58PM 28.5455 -81.3329 130° Southeast  Level Estimated